.
WxDataArchive / Data Records for 2013-01-02
2013-01-01 January 2013 2013-01-03

Data Records for Wednesday, 02 January 2013

Time	Temp	Chill	HIndex	Humid	Dewpt	 Wind 	HiWind	WindDir	Rain 	Barom 
-----	----	-----	------	-----	-----	------	------	-------	-----	----- 
00:00	17.7	17.7	17.7	79	12.3	0	0	---	0.00	30.162 
00:05	17.3	17.3	17.3	79	11.9	0	0	---	0.00	30.162 
00:10	17.0	17.0	17.0	79	11.6	0	0	---	0.00	30.162 
00:15	16.7	16.7	16.7	79	11.3	0	0	---	0.00	30.160 
00:20	16.5	16.5	16.5	80	11.4	0	0	---	0.00	30.160 
00:25	16.5	16.5	16.5	80	11.4	0	0	---	0.00	30.160 
00:30	16.4	16.4	16.4	80	11.3	0	0	---	0.00	30.166 
00:35	16.2	16.2	16.2	80	11.1	0	1	270	0.00	30.166 
00:40	16.1	16.1	16.1	81	11.3	0	0	---	0.00	30.166 
00:45	15.9	15.9	15.9	81	11.1	0	0	---	0.00	30.167 
00:50	15.7	15.7	15.7	81	10.9	0	0	---	0.00	30.167 
00:55	15.6	15.6	15.6	81	10.8	0	0	---	0.00	30.167 
01:00	15.2	15.2	15.2	81	10.4	0	0	---	0.00	30.150 
01:05	14.9	14.9	14.9	81	10.1	0	0	---	0.00	30.150 
01:10	14.8	14.8	14.8	81	10.0	0	0	---	0.00	30.150 
01:15	14.6	14.6	14.6	82	10.1	0	0	---	0.00	30.158 
01:20	14.6	14.6	14.6	82	10.1	0	0	---	0.00	30.158 
01:25	14.6	14.6	14.6	82	10.1	0	0	---	0.00	30.158 
01:30	14.4	14.4	14.4	83	10.2	0	0	---	0.00	30.158 
01:35	14.3	14.3	14.3	83	10.1	0	0	---	0.00	30.158 
01:40	14.1	14.1	14.1	83	9.9	0	0	---	0.00	30.158 
01:45	14.0	14.0	14.0	83	9.8	0	0	---	0.00	30.155 
01:50	13.8	13.8	13.8	83	9.6	0	0	---	0.00	30.155 
01:55	13.6	13.6	13.6	83	9.4	0	0	---	0.00	30.155 
02:00	13.6	13.6	13.6	84	9.7	0	0	---	0.00	30.168 
02:05	13.8	13.8	13.8	84	9.9	0	0	---	0.00	30.168 
02:10	14.1	14.1	14.1	84	10.2	0	0	---	0.00	30.168 
02:15	14.1	14.1	14.1	84	10.2	0	1	270	0.00	30.157 
02:20	14.1	14.1	14.1	84	10.2	0	1	270	0.00	30.157 
02:25	14.1	14.1	14.1	84	10.2	0	0	---	0.00	30.157 
02:30	14.0	14.0	14.0	84	10.1	0	1	270	0.00	30.170 
02:35	14.0	14.0	14.0	84	10.1	0	0	---	0.00	30.170 
02:40	14.0	14.0	14.0	84	10.1	0	2	270	0.00	30.170 
02:45	14.0	14.0	14.0	84	10.1	0	2	270	0.00	30.164 
02:50	14.1	14.1	14.1	84	10.2	0	1	270	0.00	30.164 
02:55	14.0	14.0	14.0	84	10.1	0	3	270	0.00	30.164 
03:00	14.1	14.1	14.1	84	10.2	0	2	270	0.00	30.181 
03:05	14.1	14.1	14.1	84	10.2	0	1	270	0.00	30.181 
03:10	14.3	14.3	14.3	84	10.4	0	1	270	0.00	30.181 
03:15	14.3	14.3	14.3	84	10.4	0	2	270	0.00	30.188 
03:20	14.3	14.3	14.3	84	10.4	0	2	270	0.00	30.188 
03:25	14.1	14.1	14.1	83	9.9	0	1	270	0.00	30.188 
03:30	14.1	14.1	14.1	83	9.9	0	2	270	0.00	30.186 
03:35	14.0	14.0	14.0	83	9.8	0	1	270	0.00	30.186 
03:40	13.8	13.8	13.8	82	9.3	0	1	270	0.00	30.186 
03:45	13.8	13.8	13.8	82	9.3	0	1	270	0.00	30.184 
03:50	13.6	13.6	13.6	82	9.1	0	1	270	0.00	30.184 
03:55	13.5	13.5	13.5	82	9.0	0	1	270	0.00	30.184 
04:00	13.5	13.5	13.5	82	9.0	0	2	270	0.00	30.171 
04:05	13.5	13.5	13.5	81	8.8	0	1	270	0.00	30.171 
04:10	13.3	13.3	13.3	81	8.6	0	1	270	0.00	30.171 
04:15	13.1	13.1	13.1	81	8.4	0	1	270	0.00	30.175 
04:20	12.9	12.9	12.9	81	8.2	0	0	---	0.00	30.175 
04:25	12.6	12.6	12.6	81	7.9	0	0	---	0.00	30.175 
04:30	12.4	12.4	12.4	81	7.7	0	0	---	0.00	30.179 
04:35	12.1	12.1	12.1	81	7.4	0	0	---	0.00	30.179 
04:40	11.9	11.9	11.9	81	7.2	0	0	---	0.00	30.179 
04:45	11.9	11.9	11.9	81	7.2	0	1	270	0.00	30.185 
04:50	11.7	11.7	11.7	81	7.0	0	1	270	0.00	30.185 
04:55	11.7	11.7	11.7	81	7.0	0	1	270	0.00	30.185 
05:00	11.9	11.9	11.9	81	7.2	0	1	270	0.00	30.187 
05:05	11.9	11.9	11.9	81	7.2	0	0	---	0.00	30.187 
05:10	11.7	11.7	11.7	81	7.0	0	1	270	0.00	30.187 
05:15	11.7	11.7	11.7	81	7.0	0	1	270	0.00	30.200 
05:20	11.7	11.7	11.7	81	7.0	0	1	270	0.00	30.200 
05:25	11.9	11.9	11.9	81	7.2	0	1	270	0.00	30.200 
05:30	11.9	11.9	11.9	81	7.2	0	2	270	0.00	30.199 
05:35	11.9	11.9	11.9	81	7.2	0	2	270	0.00	30.199 
05:40	11.9	11.9	11.9	81	7.2	0	3	270	0.00	30.199 
05:45	11.9	11.9	11.9	81	7.2	0	1	270	0.00	30.206 
05:50	11.7	11.7	11.7	81	7.0	0	2	270	0.00	30.206 
05:55	11.7	11.7	11.7	80	6.7	0	1	270	0.00	30.206 
06:00	11.6	11.6	11.6	80	6.6	0	1	270	0.00	30.208 
06:05	11.6	11.6	11.6	80	6.6	0	1	270	0.00	30.208 
06:10	11.4	11.4	11.4	80	6.5	0	1	270	0.00	30.208 
06:15	11.2	11.2	11.2	80	6.3	0	0	---	0.00	30.202 
06:20	11.1	11.1	11.1	80	6.2	0	1	270	0.00	30.202 
06:25	10.9	10.9	10.9	80	6.0	0	2	270	0.00	30.202 
06:30	10.7	10.7	10.7	79	5.5	0	1	270	0.00	30.200 
06:35	10.7	10.7	10.7	79	5.5	0	0	---	0.00	30.200 
06:40	10.5	10.5	10.5	80	5.6	0	1	270	0.00	30.200 
06:45	10.4	10.4	10.4	80	5.5	0	0	---	0.00	30.201 
06:50	10.2	10.2	10.2	79	5.0	0	0	---	0.00	30.201 
06:55	10.0	10.0	10.0	79	4.8	0	0	---	0.00	30.201 
07:00	9.9	9.9	9.9	80	5.0	0	0	---	0.00	30.200 
07:05	9.9	9.9	9.9	80	5.0	0	1	270	0.00	30.200 
07:10	9.7	9.7	9.7	80	4.8	0	0	---	0.00	30.200 
07:15	9.5	9.5	9.5	80	4.6	0	0	---	0.00	30.199 
07:20	9.3	9.3	9.3	80	4.4	0	0	---	0.00	30.199 
07:25	9.2	9.2	9.2	80	4.3	0	0	---	0.00	30.199 
07:30	9.2	9.2	9.2	80	4.3	0	0	---	0.00	30.193 
07:35	9.0	9.0	9.0	80	4.1	0	0	---	0.00	30.193 
07:40	8.6	8.6	8.6	80	3.7	0	0	---	0.00	30.193 
07:45	8.4	8.4	8.4	80	3.5	0	0	---	0.00	30.200 
07:50	8.3	8.3	8.3	81	3.7	0	0	---	0.00	30.200 
07:55	8.3	8.3	8.3	81	3.7	0	0	---	0.00	30.200 
08:00	8.1	8.1	8.1	81	3.5	0	0	---	0.00	30.201 
08:05	7.9	7.9	7.9	81	3.3	0	0	---	0.00	30.201 
08:10	7.9	7.9	7.9	81	3.3	0	1	270	0.00	30.201 
08:15	7.9	7.9	7.9	81	3.3	0	0	---	0.00	30.211 
08:20	7.9	7.9	7.9	81	3.3	0	0	---	0.00	30.211 
08:25	7.9	7.9	7.9	82	3.6	0	1	270	0.00	30.211 
08:30	7.9	7.9	7.9	82	3.6	0	0	---	0.00	30.222 
08:35	8.1	8.1	8.1	82	3.8	0	0	---	0.00	30.222 
08:40	8.3	8.3	8.3	82	4.0	0	1	270	0.00	30.222 
08:45	8.4	8.4	8.4	82	4.1	0	1	270	0.00	30.228 
08:50	8.6	8.6	8.6	83	4.5	0	1	270	0.00	30.228 
08:55	8.8	8.8	8.8	83	4.7	0	1	270	0.00	30.228 
09:00	9.0	9.0	9.0	82	4.6	0	1	270	0.00	30.228 
09:05	9.2	9.2	9.2	82	4.8	0	1	270	0.00	30.228 
09:10	9.2	9.2	9.2	82	4.8	0	2	270	0.00	30.228 
09:15	9.5	9.5	9.5	82	5.1	0	1	270	0.00	30.233 
09:20	9.7	9.7	9.7	82	5.3	0	2	270	0.00	30.233 
09:25	10.0	10.0	10.0	82	5.6	0	2	270	0.00	30.233 
09:30	10.2	10.2	10.2	81	5.6	0	2	270	0.00	30.244 
09:35	10.4	10.4	10.4	81	5.7	0	1	270	0.00	30.244 
09:40	10.9	10.9	10.9	81	6.2	0	1	270	0.00	30.244 
09:45	11.2	11.2	11.2	81	6.5	0	2	270	0.00	30.247 
09:50	11.6	11.6	11.6	80	6.6	1	3	270	0.00	30.247 
09:55	11.9	11.9	11.9	79	6.7	0	2	270	0.00	30.247 
10:00	12.4	12.4	12.4	79	7.2	0	2	270	0.00	30.252 
10:05	12.9	12.9	12.9	78	7.4	0	2	270	0.00	30.252 
10:10	13.3	13.3	13.3	77	7.5	1	2	270	0.00	30.252 
10:15	13.8	13.8	13.8	77	7.9	0	2	270	0.00	30.259 
10:20	14.1	14.1	14.1	76	8.0	0	1	270	0.00	30.259 
10:25	14.6	14.6	14.6	75	8.1	0	2	270	0.00	30.259 
10:30	14.9	14.9	14.9	75	8.4	0	1	270	0.00	30.258 
10:35	15.4	15.4	15.4	75	8.9	0	1	270	0.00	30.258 
10:40	15.7	15.7	15.7	74	8.9	0	2	270	0.00	30.258 
10:45	16.2	16.2	16.2	74	9.4	0	2	270	0.00	30.262 
10:50	16.7	16.7	16.7	74	9.9	0	3	270	0.00	30.262 
10:55	17.0	17.0	17.0	74	10.2	0	1	270	0.00	30.262 
11:00	17.5	17.5	17.5	74	10.7	0	2	270	0.00	30.261 
11:05	18.0	18.0	18.0	73	10.8	1	2	270	0.00	30.261 
11:10	18.3	18.3	18.3	73	11.1	1	2	270	0.00	30.261 
11:15	18.6	18.6	18.6	73	11.4	1	4	270	0.00	30.256 
11:20	18.9	18.9	18.9	72	11.4	1	4	248	0.00	30.256 
11:25	19.2	19.2	19.2	72	11.7	1	2	248	0.00	30.256 
11:30	19.5	19.5	19.5	72	12.0	1	3	248	0.00	30.256 
11:35	19.7	19.7	19.7	71	11.8	1	3	248	0.00	30.256 
11:40	20.0	20.0	20.0	71	12.1	1	3	248	0.00	30.256 
11:45	20.2	20.2	20.2	70	12.0	0	2	248	0.00	30.253 
11:50	20.5	20.5	20.5	70	12.3	0	3	248	0.00	30.253 
11:55	20.8	20.8	20.8	70	12.6	0	2	248	0.00	30.253 
12:00	21.1	21.1	21.1	70	12.9	0	2	248	0.00	30.239 
12:05	21.4	21.4	21.4	69	12.8	0	2	248	0.00	30.239 
12:10	21.6	21.6	21.6	69	13.0	0	2	248	0.00	30.239 
12:15	21.9	21.9	21.9	69	13.3	1	3	248	0.00	30.239 
12:20	22.1	22.1	22.1	69	13.5	1	3	248	0.00	30.239 
12:25	22.2	22.2	22.2	68	13.3	1	3	248	0.00	30.239 
12:30	22.4	22.4	22.4	68	13.5	1	3	248	0.00	30.238 
12:35	22.7	22.7	22.7	68	13.8	0	2	248	0.00	30.238 
12:40	23.0	23.0	23.0	67	13.7	0	2	248	0.00	30.238 
12:45	23.3	23.3	23.3	66	13.6	1	3	248	0.00	30.224 
12:50	23.5	23.5	23.5	66	13.8	0	2	248	0.00	30.224 
12:55	23.6	23.6	23.6	66	13.9	1	3	248	0.00	30.224 
13:00	23.9	23.9	23.9	65	13.9	0	2	248	0.00	30.223 
13:05	24.2	24.2	24.2	65	14.2	0	3	248	0.00	30.223 
13:10	24.5	24.5	24.5	64	14.1	0	3	248	0.00	30.223 
13:15	24.8	24.8	24.8	64	14.4	0	3	248	0.00	30.222 
13:20	25.0	25.0	25.0	63	14.2	1	3	248	0.00	30.222 
13:25	25.3	25.3	25.3	63	14.5	0	3	248	0.00	30.222 
13:30	25.4	25.4	25.4	62	14.2	0	2	248	0.00	30.216 
13:35	25.3	25.3	25.3	62	14.1	1	3	248	0.00	30.216 
13:40	25.3	25.3	25.3	62	14.1	0	2	248	0.00	30.216 
13:45	25.1	25.1	25.1	62	13.9	0	2	248	0.00	30.207 
13:50	25.3	25.3	25.3	63	14.5	0	2	248	0.00	30.207 
13:55	25.4	25.4	25.4	62	14.2	1	4	248	0.00	30.207 
14:00	25.1	25.1	25.1	63	14.3	1	3	135	0.00	30.203 
14:05	24.8	24.8	24.8	64	14.4	0	2	135	0.00	30.203 
14:10	24.4	24.4	24.4	64	14.0	1	4	112	0.00	30.203 
14:15	24.1	24.1	24.1	65	14.1	0	1	112	0.00	30.196 
14:20	24.2	24.2	24.2	65	14.2	1	4	248	0.00	30.196 
14:25	23.9	23.9	23.9	64	13.5	1	3	248	0.00	30.196 
14:30	23.6	23.6	23.6	65	13.6	1	3	112	0.00	30.202 
14:35	23.3	23.3	23.3	66	13.6	1	4	112	0.00	30.202 
14:40	23.3	23.3	23.3	66	13.6	0	2	112	0.00	30.202 
14:45	23.2	23.2	23.2	66	13.6	1	4	90	0.00	30.205 
14:50	23.2	23.2	23.2	66	13.6	0	2	90	0.00	30.205 
14:55	23.3	23.3	23.3	66	13.6	0	2	90	0.00	30.205 
15:00	23.2	23.2	23.2	66	13.6	1	3	90	0.00	30.205 
15:05	23.0	23.0	23.0	67	13.7	0	2	90	0.00	30.205 
15:10	23.0	23.0	23.0	67	13.7	0	2	90	0.00	30.205 
15:15	22.9	22.9	22.9	67	13.6	1	3	248	0.00	30.209 
15:20	22.9	22.9	22.9	68	13.9	0	2	248	0.00	30.209 
15:25	22.7	22.7	22.7	68	13.8	1	3	90	0.00	30.209 
15:30	22.7	22.7	22.7	68	13.8	0	3	112	0.00	30.207 
15:35	22.5	22.5	22.5	68	13.6	0	2	112	0.00	30.207 
15:40	22.5	22.5	22.5	68	13.6	0	2	112	0.00	30.207 
15:45	22.5	22.5	22.5	68	13.6	0	2	225	0.00	30.210 
15:50	22.7	22.7	22.7	68	13.8	0	2	248	0.00	30.210 
15:55	22.7	22.7	22.7	68	13.8	0	1	248	0.00	30.210 
16:00	22.5	22.5	22.5	68	13.6	0	2	248	0.00	30.220 
16:05	22.4	22.4	22.4	68	13.5	0	1	248	0.00	30.220 
16:10	22.4	22.4	22.4	68	13.5	1	3	68	0.00	30.220 
16:15	22.2	22.2	22.2	69	13.6	0	4	68	0.00	30.224 
16:20	22.2	22.2	22.2	68	13.3	0	2	248	0.00	30.224 
16:25	22.1	22.1	22.1	68	13.2	0	2	248	0.00	30.224 
16:30	21.8	21.8	21.8	68	12.9	1	4	112	0.00	30.219 
16:35	21.8	21.8	21.8	69	13.2	0	1	112	0.00	30.219 
16:40	21.6	21.6	21.6	68	12.7	0	1	112	0.00	30.219 
16:45	21.6	21.6	21.6	68	12.7	0	2	248	0.00	30.224 
16:50	21.4	21.4	21.4	68	12.5	0	4	248	0.00	30.224 
16:55	21.3	21.3	21.3	68	12.4	0	2	248	0.00	30.224 
17:00	21.1	21.1	21.1	68	12.2	0	1	248	0.00	30.229 
17:05	21.0	21.0	21.0	68	12.1	0	1	248	0.00	30.229 
17:10	20.5	20.5	20.5	68	11.6	0	2	248	0.00	30.229 
17:15	20.0	20.0	20.0	68	11.2	0	3	248	0.00	30.240 
17:20	19.7	19.7	19.7	68	10.9	0	2	248	0.00	30.240 
17:25	19.4	19.4	19.4	68	10.6	0	2	248	0.00	30.240 
17:30	19.1	19.1	19.1	67	10.0	0	1	248	0.00	30.245 
17:35	18.8	18.8	18.8	67	9.7	0	1	248	0.00	30.245 
17:40	18.4	18.4	18.4	67	9.3	0	1	248	0.00	30.245 
17:45	18.1	18.1	18.1	67	9.0	0	0	---	0.00	30.247 
17:50	17.8	17.8	17.8	67	8.7	0	1	248	0.00	30.247 
17:55	17.5	17.5	17.5	67	8.4	0	1	248	0.00	30.247 
18:00	17.2	17.2	17.2	67	8.2	0	1	248	0.00	30.253 
18:05	17.0	17.0	17.0	66	7.6	0	1	248	0.00	30.253 
18:10	16.7	16.7	16.7	66	7.3	0	0	---	0.00	30.253 
18:15	16.5	16.5	16.5	65	6.8	0	1	248	0.00	30.262 
18:20	16.5	16.5	16.5	65	6.8	0	1	248	0.00	30.262 
18:25	16.4	16.4	16.4	65	6.7	0	0	---	0.00	30.262 
18:30	16.4	16.4	16.4	65	6.7	0	1	248	0.00	30.266 
18:35	16.2	16.2	16.2	65	6.5	0	0	---	0.00	30.266 
18:40	16.1	16.1	16.1	65	6.4	0	0	---	0.00	30.266 
18:45	15.7	15.7	15.7	65	6.1	0	0	---	0.00	30.267 
18:50	15.6	15.6	15.6	65	6.0	0	0	---	0.00	30.267 
18:55	15.4	15.4	15.4	65	5.8	0	0	---	0.00	30.267 
19:00	15.2	15.2	15.2	65	5.6	0	1	248	0.00	30.270 
19:05	15.2	15.2	15.2	66	5.9	0	0	---	0.00	30.270 
19:10	15.1	15.1	15.1	66	5.8	0	0	---	0.00	30.270 
19:15	15.1	15.1	15.1	66	5.8	0	0	---	0.00	30.273 
19:20	14.9	14.9	14.9	66	5.6	0	0	---	0.00	30.273 
19:25	14.8	14.8	14.8	66	5.5	0	1	248	0.00	30.273 
19:30	14.8	14.8	14.8	66	5.5	0	0	---	0.00	30.272 
19:35	14.6	14.6	14.6	66	5.3	0	0	---	0.00	30.272 
19:40	14.4	14.4	14.4	66	5.1	0	0	---	0.00	30.272 
19:45	14.3	14.3	14.3	66	5.1	0	0	---	0.00	30.266 
19:50	14.1	14.1	14.1	66	4.9	0	0	---	0.00	30.266 
19:55	14.0	14.0	14.0	67	5.1	0	0	---	0.00	30.266 
20:00	13.8	13.8	13.8	67	4.9	0	0	---	0.00	30.258 
20:05	13.6	13.6	13.6	68	5.0	0	0	---	0.00	30.258 
20:10	13.6	13.6	13.6	68	5.0	0	0	---	0.00	30.258 
20:15	13.6	13.6	13.6	68	5.0	0	0	---	0.00	30.257 
20:20	13.6	13.6	13.6	68	5.0	0	1	248	0.00	30.257 
20:25	13.8	13.8	13.8	68	5.2	0	1	248	0.00	30.257 
20:30	13.6	13.6	13.6	68	5.0	0	0	---	0.00	30.257 
20:35	13.5	13.5	13.5	68	4.9	0	0	---	0.00	30.257 
20:40	13.3	13.3	13.3	68	4.7	0	0	---	0.00	30.257 
20:45	13.1	13.1	13.1	68	4.6	0	0	---	0.00	30.255 
20:50	12.8	12.8	12.8	68	4.3	0	0	---	0.00	30.255 
20:55	12.6	12.6	12.6	68	4.1	0	1	248	0.00	30.255 
21:00	12.6	12.6	12.6	69	4.4	0	0	---	0.00	30.253 
21:05	12.6	12.6	12.6	69	4.4	0	1	248	0.00	30.253 
21:10	12.6	12.6	12.6	68	4.1	0	0	---	0.00	30.253 
21:15	12.4	12.4	12.4	68	3.9	0	0	---	0.00	30.253 
21:20	12.3	12.3	12.3	68	3.8	0	0	---	0.00	30.253 
21:25	12.1	12.1	12.1	68	3.6	0	0	---	0.00	30.253 
21:30	11.9	11.9	11.9	68	3.4	0	1	248	0.00	30.246 
21:35	11.9	11.9	11.9	68	3.4	0	0	---	0.00	30.246 
21:40	11.9	11.9	11.9	68	3.4	0	0	---	0.00	30.246 
21:45	11.7	11.7	11.7	68	3.2	0	0	---	0.00	30.248 
21:50	11.7	11.7	11.7	68	3.2	0	0	---	0.00	30.248 
21:55	11.6	11.6	11.6	67	2.8	0	0	---	0.00	30.248 
22:00	11.6	11.6	11.6	67	2.8	0	0	---	0.00	30.249 
22:05	11.4	11.4	11.4	67	2.6	0	0	---	0.00	30.249 
22:10	11.4	11.4	11.4	67	2.6	0	0	---	0.00	30.249 
22:15	11.2	11.2	11.2	67	2.4	0	1	248	0.00	30.238 
22:20	11.2	11.2	11.2	67	2.4	0	0	---	0.00	30.238 
22:25	11.1	11.1	11.1	67	2.3	0	0	---	0.00	30.238 
22:30	11.1	11.1	11.1	67	2.3	0	0	---	0.00	30.233 
22:35	10.9	10.9	10.9	67	2.1	0	0	---	0.00	30.233 
22:40	10.9	10.9	10.9	67	2.1	0	0	---	0.00	30.233 
22:45	10.9	10.9	10.9	67	2.1	0	0	---	0.00	30.236 
22:50	10.9	10.9	10.9	67	2.1	0	0	---	0.00	30.236 
22:55	10.9	10.9	10.9	67	2.1	0	0	---	0.00	30.236 
23:00	10.9	10.9	10.9	67	2.1	0	0	---	0.00	30.237 
23:05	10.7	10.7	10.7	67	1.9	0	0	---	0.00	30.237 
23:10	10.7	10.7	10.7	68	2.3	0	0	---	0.00	30.237 
23:15	10.5	10.5	10.5	68	2.1	0	0	---	0.00	30.229 
23:20	10.7	10.7	10.7	68	2.3	0	1	248	0.00	30.229 
23:25	10.9	10.9	10.9	68	2.4	0	1	248	0.00	30.229 
23:30	10.9	10.9	10.9	68	2.4	0	0	---	0.00	30.226 
23:35	11.1	11.1	11.1	68	2.6	0	0	---	0.00	30.226 
23:40	11.1	11.1	11.1	67	2.3	0	0	---	0.00	30.226 
23:45	11.2	11.2	11.2	67	2.4	0	1	248	0.00	30.218 
23:50	11.2	11.2	11.2	67	2.4	0	0	---	0.00	30.218 
23:55	11.1	11.1	11.1	67	2.3	0	0	---	0.00	30.218 

CoCoRaHS
IN-AL-39
A2 Web Hosting
Creative Commons License
GoDaddy
search engine by freefind advanced

loaded 2018-11-15 13:30:16 • last modified 2010-11-18 10:43:29
Privacy PolicyDisclaimer
• wx.awcolley.com is powered by PmWiki v.2002016 •
• all content (unless otherwise noted) © 2018 A W Colley